Time;durP1;ratioP1;P1;durP2;ratioP2;P2;SDS_P1;SDS_P2;PMS_P1;PMS_P2;Temp;Humidity;BMP_temperature;BMP_pressure;BME280_temperature;BME280_humidity;BME280_pressure;Samples;Min_cycle;Max_cycle;Signal;HPM_P1;HPM_P2
2023/04/10 00:00:03;;;;;;;;;4.25;4.25;;;;;23.10;34.93;101689.75;5075406;28;45435;-76
2023/04/10 00:02:28;;;;;;;;;1.75;1.75;;;;;23.05;34.66;101678.81;5075432;28;45397;-73
2023/04/10 00:04:54;;;;;;;;;6.50;4.00;;;;;23.10;34.63;101687.09;5077021;28;45410;-75
2023/04/10 00:07:19;;;;;;;;;5.00;5.00;;;;;23.12;34.40;101687.75;5078777;28;45344;-76
2023/04/10 00:09:44;;;;;;;;;7.25;6.25;;;;;23.12;34.83;101681.63;5079006;28;45297;-72
2023/04/10 00:12:10;;;;;;;;;5.50;4.25;;;;;23.07;34.26;101672.34;5078569;28;45297;-75
2023/04/10 00:14:36;;;;;;;;;4.00;4.00;;;;;23.12;34.82;101684.28;5078947;28;45467;-75
2023/04/10 00:17:01;;;;;;;;;4.25;4.25;;;;;23.13;34.60;101688.59;5078553;28;46466;-75
2023/04/10 00:19:26;;;;;;;;;5.25;3.75;;;;;23.06;34.54;101675.97;5078745;28;45375;-75
2023/04/10 00:21:52;;;;;;;;;4.00;4.00;;;;;23.00;34.10;101660.75;5078858;28;45276;-76
2023/04/10 00:24:17;;;;;;;;;7.00;5.00;;;;;23.07;34.57;101674.16;5078802;28;45308;-75
2023/04/10 00:26:42;;;;;;;;;5.00;4.00;;;;;23.11;34.30;101686.09;5077437;28;46050;-75
2023/04/10 00:29:08;;;;;;;;;4.50;4.50;;;;;23.11;34.93;101685.28;5078524;28;45315;-75
2023/04/10 00:31:33;;;;;;;;;6.00;4.50;;;;;23.10;34.88;101691.56;5078592;28;45396;-75
2023/04/10 00:33:58;;;;;;;;;6.25;6.25;;;;;23.06;34.86;101685.75;5078687;28;45285;-75
2023/04/10 00:36:24;;;;;;;;;4.50;4.50;;;;;23.07;34.28;101684.78;5078467;28;45256;-75
2023/04/10 00:38:50;;;;;;;;;5.00;5.00;;;;;23.01;34.33;101667.69;5078227;27;45482;-75
2023/04/10 00:41:15;;;;;;;;;7.00;4.00;;;;;23.03;34.94;101663.03;5077845;28;45312;-76
2023/04/10 00:43:41;;;;;;;;;5.75;3.75;;;;;23.04;34.36;101664.72;5078539;28;45443;-73
2023/04/10 00:46:06;;;;;;;;;3.00;3.00;;;;;23.08;34.26;101662.56;5078323;28;45612;-76
2023/04/10 00:48:32;;;;;;;;;3.75;3.75;;;;;23.07;34.83;101653.75;5078316;28;45395;-75
2023/04/10 00:50:59;;;;;;;;;5.25;5.25;;;;;23.01;34.52;101640.31;5078328;28;45446;-75
2023/04/10 00:53:24;;;;;;;;;4.50;4.50;;;;;22.96;34.93;101633.69;5077924;28;45360;-75
2023/04/10 00:55:50;;;;;;;;;3.75;3.75;;;;;23.07;34.54;101648.44;5077600;28;46051;-75
2023/04/10 00:58:15;;;;;;;;;2.75;2.00;;;;;23.01;34.80;101640.31;5078156;28;45408;-76
2023/04/10 01:00:41;;;;;;;;;5.00;5.00;;;;;23.05;34.94;101650.44;5059683;28;45391;-75
2023/04/10 01:03:08;;;;;;;;;5.25;5.25;;;;;23.05;34.95;101641.66;5078350;28;45379;-75
2023/04/10 01:06:02;;;;;;;;;4.00;4.00;;;;;23.04;34.66;101645.28;5077889;28;45518;-75
2023/04/10 01:08:53;;;;;;;;;5.25;3.00;;;;;23.04;34.80;101639.97;5077844;28;45451;-75
2023/04/10 01:11:24;;;;;;;;;3.00;3.00;;;;;23.04;34.44;101637.34;4995172;28;45457;-75
2023/04/10 01:14:18;;;;;;;;;4.00;4.00;;;;;23.03;34.40;101631.19;4995622;28;45372;-76
2023/04/10 01:17:10;;;;;;;;;3.75;3.75;;;;;23.02;34.42;101626.91;4993942;28;46253;-73
2023/04/10 01:20:04;;;;;;;;;3.00;3.00;;;;;23.02;34.50;101623.41;4988823;28;45435;-76
2023/04/10 01:23:20;;;;;;;;;5.00;4.00;;;;;23.01;34.94;101619.91;4936804;28;45531;-75
2023/04/10 01:25:58;;;;;;;;;4.00;4.00;;;;;23.01;34.66;101608.47;4936465;28;45519;-75
2023/04/10 01:28:54;;;;;;;;;7.00;4.50;;;;;23.02;34.57;101616.28;4936650;28;46468;-74
2023/04/10 01:31:40;;;;;;;;;4.50;3.00;;;;;22.97;34.84;101594.72;4936610;28;45653;-75
2023/04/10 01:34:09;;;;;;;;;5.00;5.00;;;;;22.96;34.76;101593.88;4926902;28;45407;-75
2023/04/10 01:36:47;;;;;;;;;5.33;4.00;;;;;23.03;34.51;101591.38;4936639;28;45431;-76
2023/04/10 01:39:15;;;;;;;;;4.00;4.00;;;;;23.02;34.63;101587.09;4936193;28;46103;-75
2023/04/10 01:41:43;;;;;;;;;4.00;4.00;;;;;23.01;34.75;101574.81;4936398;28;45529;-75
2023/04/10 01:44:13;;;;;;;;;4.50;4.00;;;;;23.03;34.53;101577.31;4936705;28;45296;-75
2023/04/10 01:46:39;;;;;;;;;6.50;5.50;;;;;22.96;34.38;101570.00;4935794;28;45546;-75
2023/04/10 01:49:05;;;;;;;;;5.75;5.00;;;;;23.05;34.67;101573.47;4973438;28;45452;-74
2023/04/10 01:51:33;;;;;;;;;3.67;3.00;;;;;23.05;34.69;101575.31;4994902;28;45677;-75
2023/04/10 01:53:59;;;;;;;;;4.75;4.00;;;;;23.03;34.53;101567.50;5004053;28;45409;-75
2023/04/10 01:56:26;;;;;;;;;5.00;5.00;;;;;23.02;34.63;101572.97;5014723;28;45512;-74
2023/04/10 01:58:51;;;;;;;;;4.25;4.25;;;;;23.05;34.12;101573.47;5025365;28;47004;-75
2023/04/10 02:01:20;;;;;;;;;3.75;3.75;;;;;22.79;34.37;101526.78;5056858;28;45284;-75
2023/04/10 02:03:46;;;;;;;;;7.00;5.75;;;;;23.05;34.46;101565.53;5056940;28;45380;-75
2023/04/10 02:06:28;;;;;;;;;4.00;3.75;;;;;23.09;34.49;101565.16;5056553;28;45348;-75
2023/04/10 02:09:27;;;;;;;;;4.00;4.00;;;;;22.97;34.17;101541.66;5054889;28;47003;-74
2023/04/10 02:12:04;;;;;;;;;4.50;4.50;;;;;23.09;34.46;101560.69;5051466;28;45440;-75
2023/04/10 02:14:31;;;;;;;;;5.00;5.00;;;;;23.09;34.31;101559.84;5056672;28;45345;-75
2023/04/10 02:16:58;;;;;;;;;5.75;5.25;;;;;23.01;34.35;101550.91;5056320;28;45295;-75
2023/04/10 02:19:25;;;;;;;;;4.25;4.25;;;;;23.08;34.54;101551.09;5056266;28;46219;-75
2023/04/10 02:21:52;;;;;;;;;4.75;4.00;;;;;23.08;34.07;101553.75;5056577;28;45438;-75
2023/04/10 02:24:19;;;;;;;;;5.50;5.50;;;;;22.95;34.16;101535.69;5056258;28;45356;-75
2023/04/10 02:26:49;;;;;;;;;4.00;4.00;;;;;23.07;34.50;101549.41;5056167;28;45407;-75
2023/04/10 02:29:15;;;;;;;;;3.75;3.75;;;;;23.06;34.28;101537.13;5056186;28;46956;-75
2023/04/10 02:31:41;;;;;;;;;4.00;3.25;;;;;23.04;34.03;101531.16;5056087;28;45419;-75
2023/04/10 02:34:07;;;;;;;;;3.75;3.00;;;;;22.98;34.14;101526.56;5056356;28;45391;-75
2023/04/10 02:36:34;;;;;;;;;2.00;2.00;;;;;22.99;34.62;101522.91;5056543;28;45325;-74
2023/04/10 02:38:59;;;;;;;;;4.25;4.25;;;;;23.00;34.47;101521.91;5076037;28;45339;-76
2023/04/10 02:41:25;;;;;;;;;5.75;5.25;;;;;23.04;34.65;101526.69;5076390;28;45298;-75
2023/04/10 02:43:51;;;;;;;;;3.00;3.00;;;;;23.02;34.34;101520.75;5076733;28;45588;-75
2023/04/10 02:46:16;;;;;;;;;4.50;4.00;;;;;23.05;34.32;101530.19;5076474;28;45484;-75
2023/04/10 02:48:41;;;;;;;;;6.50;5.00;;;;;23.04;34.62;101523.22;5076349;28;46050;-75
2023/04/10 02:51:07;;;;;;;;;5.50;4.50;;;;;23.05;34.34;101517.75;5058151;28;45343;-75
2023/04/10 02:53:33;;;;;;;;;2.75;2.50;;;;;23.04;34.07;101516.09;5075892;28;45372;-75
2023/04/10 02:55:58;;;;;;;;;5.25;3.50;;;;;23.04;34.19;101515.25;5076348;28;45345;-75
2023/04/10 02:58:23;;;;;;;;;5.75;5.75;;;;;23.04;34.59;101504.63;5076165;28;45333;-75
2023/04/10 03:00:50;;;;;;;;;3.50;3.50;;;;;23.02;34.39;101502.16;5076191;28;45298;-75
2023/04/10 03:03:17;;;;;;;;;4.50;4.00;;;;;22.94;34.13;101492.41;5076390;28;45434;-75
2023/04/10 03:05:45;;;;;;;;;4.00;4.00;;;;;23.03;34.23;101505.66;5075973;28;45558;-75
2023/04/10 03:08:11;;;;;;;;;4.00;4.00;;;;;23.02;34.57;101506.63;5075554;28;47026;-75
2023/04/10 03:10:36;;;;;;;;;4.00;4.00;;;;;22.95;34.15;101494.03;5076092;28;45437;-76
2023/04/10 03:13:02;;;;;;;;;6.50;5.25;;;;;22.98;34.22;101495.53;5076235;28;45479;-75
2023/04/10 03:15:27;;;;;;;;;5.00;4.25;;;;;22.99;34.17;101499.00;5075985;28;45447;-76
2023/04/10 03:17:52;;;;;;;;;6.00;5.25;;;;;23.01;34.09;101491.69;5075809;28;47166;-75
2023/04/10 03:20:18;;;;;;;;;5.00;4.00;;;;;22.90;34.55;101477.00;5057606;28;45730;-76
2023/04/10 03:22:43;;;;;;;;;5.00;5.00;;;;;22.92;34.38;101489.09;5075784;28;45472;-75
2023/04/10 03:25:09;;;;;;;;;6.75;4.25;;;;;22.98;34.32;101500.03;5076087;28;45319;-75
2023/04/10 03:27:34;;;;;;;;;3.25;3.00;;;;;22.94;34.07;101484.44;5057495;28;47306;-75
2023/04/10 03:30:01;;;;;;;;;5.25;5.25;;;;;22.99;33.83;101499.84;5075719;28;45435;-75
2023/04/10 03:32:27;;;;;;;;;5.25;4.25;;;;;22.99;33.98;101510.47;5075862;28;45463;-75
2023/04/10 03:34:52;;;;;;;;;5.00;5.00;;;;;23.03;34.00;101516.25;5075801;28;45373;-75
2023/04/10 03:37:18;;;;;;;;;5.00;5.00;;;;;22.94;34.08;101495.06;5056901;28;45509;-75
2023/04/10 03:39:44;;;;;;;;;3.00;3.00;;;;;23.03;34.06;101505.66;5076946;28;45411;-75
2023/04/10 03:42:10;;;;;;;;;4.75;4.75;;;;;23.03;34.60;101503.00;5079409;28;45288;-75
2023/04/10 03:44:35;;;;;;;;;3.00;3.00;;;;;23.02;34.20;101493.38;5079568;28;45191;-75
2023/04/10 03:47:01;;;;;;;;;3.33;3.33;;;;;22.93;34.33;101472.16;5078868;28;46442;-75
2023/04/10 03:49:26;;;;;;;;;6.50;5.00;;;;;23.00;34.15;101477.63;5078703;28;45264;-75
2023/04/10 03:51:52;;;;;;;;;3.25;3.25;;;;;23.00;34.15;101474.97;5079399;28;45361;-75
2023/04/10 03:54:17;;;;;;;;;4.50;4.50;;;;;22.94;34.45;101462.38;5078979;28;45815;-75
2023/04/10 03:56:42;;;;;;;;;4.75;4.75;;;;;23.02;34.43;101472.97;5078912;28;47043;-75
2023/04/10 03:59:07;;;;;;;;;5.75;4.25;;;;;23.03;34.20;101471.94;5078999;28;45271;-75
2023/04/10 04:01:33;;;;;;;;;4.00;4.00;;;;;22.99;34.29;101469.81;5079153;28;45309;-75
2023/04/10 04:03:58;;;;;;;;;6.00;5.00;;;;;23.03;34.26;101471.16;5078936;28;45328;-76
2023/04/10 04:06:24;;;;;;;;;5.00;3.25;;;;;23.02;34.00;101466.81;5078646;28;45452;-75
2023/04/10 04:08:49;;;;;;;;;4.50;3.75;;;;;23.02;33.93;101472.97;5078876;28;45315;-76
2023/04/10 04:11:15;;;;;;;;;3.00;3.00;;;;;23.02;34.16;101477.44;5079162;28;45618;-75
2023/04/10 04:13:40;;;;;;;;;4.50;4.00;;;;;22.93;34.18;101466.84;5078805;28;45285;-75
2023/04/10 04:16:06;;;;;;;;;3.75;3.75;;;;;23.01;34.16;101473.94;5078634;28;46431;-75
2023/04/10 04:18:31;;;;;;;;;2.75;2.75;;;;;23.01;34.22;101476.63;5078202;28;45395;-75
2023/04/10 04:20:57;;;;;;;;;2.50;2.50;;;;;22.99;34.54;101473.31;5060689;28;45431;-75
2023/04/10 04:23:22;;;;;;;;;4.75;4.75;;;;;23.00;34.41;101464.34;5078907;28;45363;-75
2023/04/10 04:25:51;;;;;;;;;4.00;4.00;;;;;22.99;34.13;101470.66;5078514;28;46075;-75
2023/04/10 04:28:17;;;;;;;;;5.00;4.00;;;;;22.95;34.77;101462.19;5078721;28;45387;-75
2023/04/10 04:30:42;;;;;;;;;4.00;4.00;;;;;22.91;34.36;101452.94;5078619;28;45463;-75
2023/04/10 04:33:07;;;;;;;;;4.25;3.50;;;;;22.99;34.02;101468.00;5078221;28;45606;-74
2023/04/10 04:35:33;;;;;;;;;6.00;5.00;;;;;22.92;34.74;101464.38;5078452;28;46127;-74
2023/04/10 04:37:58;;;;;;;;;4.75;4.25;;;;;22.93;34.43;101473.97;5078188;28;45502;-74
2023/04/10 04:40:23;;;;;;;;;4.00;3.75;;;;;22.84;34.43;101457.28;5078394;28;45352;-74
2023/04/10 04:42:49;;;;;;;;;4.50;4.50;;;;;22.87;34.46;101461.41;5078439;28;45253;-74
2023/04/10 04:45:14;;;;;;;;;4.75;4.75;;;;;22.99;34.28;101488.41;5078169;28;45964;-74
2023/04/10 04:47:39;;;;;;;;;4.00;4.00;;;;;22.85;34.27;101462.41;5078009;28;45437;-74
2023/04/10 04:50:05;;;;;;;;;4.50;4.00;;;;;22.74;34.53;101437.06;5078028;28;45347;-74
2023/04/10 04:52:31;;;;;;;;;4.00;4.00;;;;;22.94;34.50;101457.91;5078097;28;45391;-74
2023/04/10 04:54:56;;;;;;;;;4.00;3.00;;;;;23.00;34.24;101468.84;5078053;28;46940;-74
2023/04/10 04:57:22;;;;;;;;;2.25;2.00;;;;;22.96;34.45;101461.22;5078090;28;45428;-74
2023/04/10 04:59:47;;;;;;;;;3.00;3.00;;;;;22.93;34.10;101460.72;5078200;28;45327;-75
2023/04/10 05:02:12;;;;;;;;;2.75;2.75;;;;;22.96;34.49;101463.84;5077874;28;45306;-74
2023/04/10 05:04:37;;;;;;;;;3.00;3.00;;;;;23.00;34.47;101472.31;5077995;28;46196;-74
2023/04/10 05:07:03;;;;;;;;;4.25;4.25;;;;;22.95;34.23;101472.81;5077859;28;45985;-74
2023/04/10 05:09:28;;;;;;;;;6.00;3.50;;;;;23.01;33.82;101486.38;5078133;28;45328;-74
2023/04/10 05:11:54;;;;;;;;;4.25;3.00;;;;;22.87;34.37;101462.25;5078036;28;45388;-74
2023/04/10 05:14:21;;;;;;;;;4.75;3.75;;;;;23.02;34.13;101482.75;5077804;28;46919;-75
2023/04/10 05:16:46;;;;;;;;;3.75;3.00;;;;;22.95;33.95;101472.81;5077363;28;45328;-74
2023/04/10 05:19:11;;;;;;;;;3.00;2.25;;;;;22.93;33.81;101458.06;5077704;28;45231;-75
2023/04/10 05:21:37;;;;;;;;;3.25;3.25;;;;;23.02;34.45;101472.97;5078001;28;45273;-73
2023/04/10 05:24:02;;;;;;;;;4.00;4.00;;;;;23.02;34.00;101470.31;5059399;28;45930;-74
2023/04/10 05:26:27;;;;;;;;;3.00;3.00;;;;;23.00;34.36;101467.00;5077595;28;45342;-74
2023/04/10 05:28:53;;;;;;;;;4.00;4.00;;;;;23.01;34.13;101471.31;5077979;28;45440;-74
2023/04/10 05:31:18;;;;;;;;;5.00;4.00;;;;;22.79;34.72;101433.09;5077168;28;45279;-74
2023/04/10 05:33:43;;;;;;;;;4.50;3.75;;;;;23.00;33.90;101469.66;5077517;28;46176;-74
2023/04/10 05:36:09;;;;;;;;;4.25;4.00;;;;;23.00;33.98;101464.34;5077542;28;45391;-74
2023/04/10 05:38:35;;;;;;;;;4.50;4.50;;;;;22.91;33.94;101463.53;5077520;28;45364;-74
2023/04/10 05:41:00;;;;;;;;;3.00;3.00;;;;;22.99;34.02;101475.13;5077226;28;45653;-74
2023/04/10 05:43:25;;;;;;;;;4.25;4.25;;;;;22.93;34.43;101468.66;5077085;28;47155;-74
2023/04/10 05:45:51;;;;;;;;;5.50;4.50;;;;;23.00;34.09;101472.31;5077036;28;45425;-74
2023/04/10 05:48:16;;;;;;;;;4.50;4.50;;;;;22.99;34.13;101469.81;5077550;28;45480;-74
2023/04/10 05:50:41;;;;;;;;;5.00;5.00;;;;;22.95;33.95;101462.19;5077360;28;45391;-74
2023/04/10 05:53:12;;;;;;;;;4.00;4.00;;;;;22.99;33.93;101475.97;5058730;28;47023;-73
2023/04/10 05:55:37;;;;;;;;;4.50;3.50;;;;;22.91;33.91;101452.09;5077005;28;45484;-74
2023/04/10 05:58:02;;;;;;;;;3.00;3.00;;;;;22.98;34.32;101462.88;5077304;28;45850;-74
2023/04/10 06:00:28;;;;;;;;;4.25;4.25;;;;;22.98;34.22;101458.38;5076878;28;45619;-74
2023/04/10 06:02:53;;;;;;;;;5.00;5.00;;;;;22.70;34.43;101414.53;5076199;28;45299;-74
2023/04/10 06:05:18;;;;;;;;;4.00;4.00;;;;;22.95;33.99;101454.22;5077021;28;45374;-74
2023/04/10 06:07:44;;;;;;;;;4.25;4.25;;;;;22.98;34.30;101455.72;5077173;28;45345;-74
2023/04/10 06:10:09;;;;;;;;;3.00;3.00;;;;;22.98;34.13;101454.91;5077113;28;45296;-74
2023/04/10 06:12:35;;;;;;;;;3.75;3.75;;;;;22.96;34.61;101450.59;5076969;28;46151;-74
2023/04/10 06:15:01;;;;;;;;;5.00;4.00;;;;;22.93;34.58;101456.25;5076649;28;45496;-74
2023/04/10 06:17:27;;;;;;;;;5.50;2.50;;;;;22.80;34.22;101440.03;5077118;28;45388;-73
2023/04/10 06:19:52;;;;;;;;;3.75;3.75;;;;;22.88;34.29;101447.13;5076924;28;45634;-74
2023/04/10 06:22:17;;;;;;;;;4.25;4.25;;;;;22.85;34.35;101446.47;5076643;28;45403;-75
2023/04/10 06:24:43;;;;;;;;;3.00;3.00;;;;;22.96;34.02;101460.38;5076783;28;45291;-74
2023/04/10 06:27:08;;;;;;;;;5.50;4.50;;;;;22.97;34.03;101462.03;5076932;28;45242;-74
2023/04/10 06:29:33;;;;;;;;;2.75;2.75;;;;;22.96;33.80;101463.03;5076527;28;45336;-74
2023/04/10 06:31:59;;;;;;;;;4.50;4.50;;;;;22.98;33.84;101461.03;5076522;28;45320;-74
2023/04/10 06:34:25;;;;;;;;;5.50;4.00;;;;;22.98;34.18;101460.22;5076616;28;45469;-74
2023/04/10 06:36:50;;;;;;;;;4.25;3.00;;;;;23.00;33.87;101452.91;5076512;28;45285;-74
2023/04/10 06:39:16;;;;;;;;;5.50;3.75;;;;;22.99;33.79;101449.41;5076646;28;45290;-74
2023/04/10 06:41:42;;;;;;;;;4.25;4.25;;;;;22.79;34.39;101415.34;5076458;28;46326;-74
2023/04/10 06:44:07;;;;;;;;;3.75;3.75;;;;;23.00;34.01;101459.06;5075974;28;45345;-74
2023/04/10 06:46:32;;;;;;;;;3.00;3.00;;;;;22.92;34.01;101441.34;5076627;28;45515;-74
2023/04/10 06:48:58;;;;;;;;;3.00;3.00;;;;;22.99;34.51;101457.38;5076596;28;45373;-74
2023/04/10 06:51:23;;;;;;;;;4.00;4.00;;;;;23.00;34.30;101464.34;5076428;28;45545;-74
2023/04/10 06:53:49;;;;;;;;;2.75;2.75;;;;;22.96;34.01;101463.03;5076101;28;45527;-74
2023/04/10 06:56:14;;;;;;;;;4.25;4.00;;;;;22.99;33.92;101472.47;5076303;28;45281;-74
2023/04/10 06:58:40;;;;;;;;;3.50;3.50;;;;;22.99;34.29;101465.34;5057903;28;45451;-74
2023/04/10 07:01:05;;;;;;;;;4.00;4.00;;;;;23.01;34.44;101462.50;5076157;28;46001;-74
2023/04/10 07:03:31;;;;;;;;;5.00;3.50;;;;;22.94;34.10;101443.81;5076221;28;45383;-74
2023/04/10 07:05:57;;;;;;;;;3.00;3.00;;;;;23.00;33.94;101450.25;5076381;28;45359;-74
2023/04/10 07:08:22;;;;;;;;;3.75;3.75;;;;;23.00;34.41;101456.41;5076122;28;45505;-74
2023/04/10 07:10:47;;;;;;;;;3.00;3.00;;;;;22.88;34.10;101431.22;5076061;28;47328;-74
2023/04/10 07:13:13;;;;;;;;;3.00;3.00;;;;;22.99;33.85;101438.81;5075841;28;45436;-75
2023/04/10 07:15:38;;;;;;;;;3.50;3.50;;;;;22.97;33.99;101432.84;5076188;28;45486;-74
2023/04/10 07:18:05;;;;;;;;;3.50;3.50;;;;;22.97;34.08;101430.19;5076060;28;45367;-74
2023/04/10 07:20:31;;;;;;;;;2.75;2.75;;;;;22.98;34.69;101439.00;5075778;28;45557;-75
2023/04/10 07:22:56;;;;;;;;;3.00;3.00;;;;;22.91;34.21;101429.06;5075864;28;45452;-74
2023/04/10 07:25:21;;;;;;;;;2.75;2.75;;;;;22.97;34.15;101432.84;5075979;28;45241;-74
2023/04/10 07:27:47;;;;;;;;;3.50;3.50;;;;;22.95;34.24;101434.84;5040008;28;45620;-74
2023/04/10 07:30:12;;;;;;;;;3.50;3.50;;;;;22.94;34.46;101443.81;5057567;28;47279;-74
2023/04/10 07:32:38;;;;;;;;;3.50;2.75;;;;;22.97;34.31;101440.81;5075567;28;45438;-74
2023/04/10 07:35:05;;;;;;;;;3.50;3.50;;;;;22.98;34.45;101446.94;5075752;28;45465;-74
2023/04/10 07:37:30;;;;;;;;;3.00;3.00;;;;;22.92;33.98;101432.53;5075551;28;45396;-75
2023/04/10 07:39:56;;;;;;;;;3.25;3.25;;;;;22.96;34.45;101432.03;5075504;28;46055;-74
2023/04/10 07:42:22;;;;;;;;;3.00;3.00;;;;;22.93;34.13;101420.91;5075182;28;45443;-74
2023/04/10 07:44:47;;;;;;;;;6.00;4.75;;;;;22.97;34.09;101432.84;5075802;28;45397;-74
2023/04/10 07:47:12;;;;;;;;;3.75;3.00;;;;;22.96;34.07;101431.19;5057458;28;45356;-74
2023/04/10 07:49:38;;;;;;;;;2.00;2.00;;;;;22.92;34.66;101412.16;5075685;28;45245;-74
2023/04/10 07:52:03;;;;;;;;;3.00;3.00;;;;;22.96;34.46;101421.41;5075595;28;45330;-74
2023/04/10 07:54:33;;;;;;;;;3.00;2.50;;;;;22.97;34.22;101432.84;5075482;28;45327;-74
2023/04/10 07:56:59;;;;;;;;;4.00;4.00;;;;;22.96;34.62;101423.22;5075157;28;45238;-74
2023/04/10 07:59:25;;;;;;;;;3.00;3.00;;;;;22.90;33.97;101414.13;5075182;28;45230;-73
2023/04/10 08:01:51;;;;;;;;;4.00;4.00;;;;;22.96;34.07;101425.88;5075331;28;45414;-74
2023/04/10 08:04:16;;;;;;;;;3.25;3.25;;;;;22.98;34.41;101428.38;5075366;28;45456;-74
2023/04/10 08:06:41;;;;;;;;;3.25;3.25;;;;;22.98;33.87;101426.53;5075519;28;45464;-75
2023/04/10 08:09:06;;;;;;;;;2.25;2.25;;;;;22.94;34.19;101422.56;5057267;28;47114;-74
2023/04/10 08:11:33;;;;;;;;;4.00;4.00;;;;;22.94;34.30;101420.75;5074910;28;45374;-75
2023/04/10 08:14:00;;;;;;;;;3.75;3.75;;;;;23.01;34.27;101423.53;5075503;28;45371;-75
2023/04/10 08:16:30;;;;;;;;;5.00;4.00;;;;;23.00;33.99;101416.59;5075261;28;45225;-75
2023/04/10 08:18:56;;;;;;;;;5.00;3.75;;;;;23.01;34.44;101423.53;5074706;28;46118;-78
2023/04/10 08:21:26;;;;;;;;;5.00;3.00;;;;;22.92;34.28;101421.94;5075088;28;45479;-80
2023/04/10 08:23:56;;;;;;;;;4.25;4.00;;;;;23.02;34.67;101416.41;5074937;28;45229;-78
2023/04/10 08:26:22;;;;;;;;;3.25;3.00;;;;;22.99;34.29;101411.44;5077031;28;45435;-79
2023/04/10 08:28:49;;;;;;;;;2.25;2.25;;;;;22.94;34.02;101391.56;5078479;28;45498;-77
2023/04/10 08:31:20;;;;;;;;;3.00;3.00;;;;;23.00;34.39;101399.84;5070108;28;45530;-79
2023/04/10 08:33:45;;;;;;;;;5.00;3.33;;;;;23.01;34.37;101412.09;5078571;28;45388;-78
2023/04/10 08:36:11;;;;;;;;;4.50;4.00;;;;;23.03;34.67;101410.91;5078467;28;45287;-77
2023/04/10 08:38:38;;;;;;;;;2.75;2.75;;;;;22.96;34.30;101391.38;5078401;28;46291;-78
2023/04/10 08:41:04;;;;;;;;;5.75;4.50;;;;;23.04;34.90;101409.09;5077955;28;45373;-78
2023/04/10 08:43:29;;;;;;;;;4.00;4.00;;;;;22.99;34.67;101406.97;5078411;28;45411;-78
2023/04/10 08:45:56;;;;;;;;;3.00;3.00;;;;;23.04;34.88;101412.56;5078324;28;45491;-78
2023/04/10 08:48:30;;;;;;;;;4.25;4.00;;;;;23.05;34.89;101406.28;5078124;28;46154;-77
2023/04/10 08:51:00;;;;;;;;;4.50;4.00;;;;;22.96;34.63;101386.06;5078358;28;45360;-75
2023/04/10 08:53:30;;;;;;;;;3.75;3.00;;;;;22.94;34.65;101385.44;5078121;28;45386;-75
2023/04/10 08:55:56;;;;;;;;;3.75;3.75;;;;;23.02;34.71;101398.66;5077985;28;45329;-76
2023/04/10 08:58:23;;;;;;;;;2.33;2.33;;;;;23.07;34.59;101401.63;5077982;28;45389;-76
2023/04/10 09:00:49;;;;;;;;;3.25;3.25;;;;;23.01;34.55;101390.84;5078176;28;45297;-76
2023/04/10 09:03:16;;;;;;;;;4.00;4.00;;;;;23.07;34.79;101391.00;5078374;28;45451;-80
2023/04/10 09:05:41;;;;;;;;;4.00;4.00;;;;;23.05;35.30;101389.53;5074370;28;45499;-77
2023/04/10 09:08:08;;;;;;;;;0.50;0.50;;;;;22.95;35.27;101358.72;5066810;28;45454;-80
2023/04/10 09:10:33;;;;;;;;;4.75;3.00;;;;;23.07;34.80;101372.44;5057006;28;45390;-75
2023/04/10 09:12:58;;;;;;;;;3.25;3.00;;;;;23.07;35.04;101372.44;5057600;28;45328;-75
2023/04/10 09:15:24;;;;;;;;;4.25;4.25;;;;;23.12;34.67;101379.03;5057750;28;45464;-76
2023/04/10 09:17:58;;;;;;;;;3.00;3.00;;;;;23.12;34.88;101365.75;5057488;28;46148;-75
2023/04/10 09:20:25;;;;;;;;;2.33;2.33;;;;;23.12;34.48;101363.94;5057313;28;45329;-76
2023/04/10 09:22:51;;;;;;;;;4.33;3.00;;;;;23.13;35.10;101365.59;5064601;28;45368;-75
2023/04/10 09:25:32;;;;;;;;;1.33;1.00;;;;;23.12;35.16;101369.25;5060915;28;45313;-76
2023/04/10 09:28:03;;;;;;;;;3.50;3.00;;;;;23.11;35.15;101362.28;5077517;28;46667;-79
2023/04/10 09:30:40;;;;;;;;;2.00;2.00;;;;;23.06;34.92;101349.53;5069986;28;45227;-77
2023/04/10 09:33:26;;;;;;;;;2.67;2.67;;;;;23.08;34.76;101352.03;5069529;28;45565;-77
2023/04/10 09:35:53;;;;;;;;;2.67;2.33;;;;;23.06;34.70;101352.19;5071113;28;45432;-77
2023/04/10 09:38:22;;;;;;;;;3.00;3.00;;;;;22.91;34.72;101320.25;5067019;27;45475;-78
2023/04/10 09:40:48;;;;;;;;;2.00;2.00;;;;;23.17;34.82;101361.59;5071590;28;45452;-76
2023/04/10 09:43:16;;;;;;;;;3.25;3.25;;;;;23.17;34.87;101368.72;5073810;28;45265;-75
2023/04/10 09:45:49;;;;;;;;;4.00;4.00;;;;;22.79;35.07;101297.78;5071864;28;45400;-77
2023/04/10 09:48:15;;;;;;;;;4.00;3.00;;;;;22.95;34.72;101307.50;5076880;28;45635;-75
2023/04/10 09:50:41;;;;;;;;;2.33;2.33;;;;;23.19;35.11;101353.44;5076834;28;45356;-78
2023/04/10 09:53:08;;;;;;;;;3.67;3.67;;;;;23.18;35.54;101360.59;5072014;28;45466;-78
2023/04/10 09:55:34;;;;;;;;;3.67;3.00;;;;;23.11;34.92;101354.31;5077209;28;45433;-81
2023/04/10 09:58:00;;;;;;;;;4.00;4.00;;;;;23.05;35.34;101331.97;5076988;28;46591;-79
2023/04/10 10:00:26;;;;;;;;;4.00;3.00;;;;;23.12;34.89;101341.88;5077118;28;45328;-80
2023/04/10 10:02:56;;;;;;;;;4.25;2.25;;;;;23.12;35.24;101344.53;5077278;28;45229;-80
2023/04/10 10:05:26;;;;;;;;;6.00;3.00;;;;;23.10;35.28;101352.69;5077270;28;45396;-79
2023/04/10 10:07:52;;;;;;;;;4.33;4.33;;;;;23.06;34.93;101333.59;5059198;28;47403;-80
2023/04/10 10:10:18;;;;;;;;;5.00;4.00;;;;;23.02;34.79;101334.97;5077024;28;45376;-80
2023/04/10 10:12:50;;;;;;;;;4.50;4.00;;;;;22.99;34.71;101340.63;5076995;28;45419;-79
2023/04/10 10:15:42;;;;;;;;;3.75;3.75;;;;;22.93;35.18;101326.22;5077243;28;45321;-79
2023/04/10 10:18:26;;;;;;;;;8.25;5.75;;;;;22.94;35.22;101322.56;5076730;28;46654;-77
2023/04/10 10:20:52;;;;;;;;;6.00;4.75;;;;;22.86;35.02;101314.66;5076581;28;45419;-78
2023/04/10 10:23:18;;;;;;;;;6.00;5.00;;;;;22.87;34.80;101318.13;5076928;28;45419;-78
2023/04/10 10:25:45;;;;;;;;;4.75;3.00;;;;;22.89;35.16;101324.09;5076820;28;45418;-77
2023/04/10 10:28:12;;;;;;;;;4.00;3.50;;;;;22.77;35.14;101305.09;5076509;28;47167;-78
2023/04/10 10:30:39;;;;;;;;;5.50;5.00;;;;;22.81;35.38;101309.03;5076721;28;45273;-78
2023/04/10 10:33:06;;;;;;;;;5.00;5.00;;;;;22.84;35.04;101311.34;5076534;28;45371;-79
2023/04/10 10:35:33;;;;;;;;;3.25;3.25;;;;;22.81;34.67;101303.75;5076265;28;45372;-78
2023/04/10 10:38:01;;;;;;;;;5.75;4.75;;;;;22.83;34.66;101310.53;5076383;28;45368;-78
2023/04/10 10:40:31;;;;;;;;;5.75;5.00;;;;;22.74;34.78;101296.47;5076342;28;45363;-78
2023/04/10 10:43:02;;;;;;;;;3.25;3.00;;;;;22.83;35.19;101299.09;5076546;28;45487;-78
2023/04/10 10:45:49;;;;;;;;;4.75;4.75;;;;;22.78;35.10;101280.22;5076378;28;45865;-77
2023/04/10 10:48:15;;;;;;;;;3.00;3.00;;;;;22.84;35.32;101284.81;5067875;28;46039;-76
2023/04/10 10:50:52;;;;;;;;;5.00;4.75;;;;;22.73;35.20;101262.16;5075927;28;45411;-79
2023/04/10 10:53:43;;;;;;;;;6.00;4.75;;;;;22.84;35.37;101279.53;5076036;28;45374;-79
2023/04/10 10:56:17;;;;;;;;;6.75;6.00;;;;;22.84;35.05;101269.75;5076262;28;45583;-78
2023/04/10 10:58:46;;;;;;;;;4.50;4.50;;;;;22.81;35.45;101262.13;5076056;28;47205;-79
2023/04/10 11:01:12;;;;;;;;;6.00;4.75;;;;;22.73;35.62;101254.22;5057911;28;45409;-82
2023/04/10 11:03:38;;;;;;;;;3.00;3.00;;;;;22.80;35.57;101256.97;5076322;28;45415;-77
2023/04/10 11:06:06;;;;;;;;;4.25;4.25;;;;;22.82;35.79;101247.03;5056902;28;45488;-79
2023/04/10 11:08:32;;;;;;;;;6.25;4.25;;;;;22.88;36.14;101254.28;5075924;28;47198;-79
2023/04/10 11:11:06;;;;;;;;;4.50;3.75;;;;;22.92;36.17;101254.75;5076020;28;45255;-80
2023/04/10 11:13:34;;;;;;;;;3.00;3.00;;;;;22.91;36.13;101250.44;5076294;28;45339;-80
2023/04/10 11:16:03;;;;;;;;;5.75;5.00;;;;;22.91;36.51;101250.44;5075961;28;45291;-80
2023/04/10 11:18:44;;;;;;;;;4.00;4.00;;;;;22.90;36.08;101254.91;5075988;28;46103;-80
2023/04/10 11:21:13;;;;;;;;;5.00;3.50;;;;;22.85;35.99;101252.81;5075419;28;45414;-80
2023/04/10 11:23:54;;;;;;;;;5.25;4.75;;;;;22.88;36.43;101256.94;5076045;28;45428;-79
2023/04/10 11:26:32;;;;;;;;;7.00;6.25;;;;;22.84;36.49;101245.03;5075745;28;45318;-77